Número do voo
TLA1925
Partida Destino
Linhares Airport (SNLN) Ver Cartas Aéreas

Eurico de Aguiar Salles Airport (SBVT) Ver Cartas Aéreas

Hora de Partida Hora de Chegada
12:00 12:35
Aeronave Distância
C208 55nm
METAR do Aeroporto de Partida METAR do Aeroporto de Destino
SBVT 260700Z 03010KT CAVOK 26/24 Q1010
Rota

SkyVector

 

Notas

Dados adicionais









Copyright © 2020 Todos os direitos reservados. Tropical Linhas Aereas Virtuais

Cms by phpVMS